sensor_id;sensor_type;location;lat;lon;timestamp;temperature;humidity
38568;DHT22;24338;48.280;10.970;2023-03-11T00:00:39;2.40;99.90
38568;DHT22;24338;48.280;10.970;2023-03-11T00:03:07;2.40;99.90
38568;DHT22;24338;48.280;10.970;2023-03-11T00:05:39;2.40;99.90
38568;DHT22;24338;48.280;10.970;2023-03-11T00:08:08;2.40;99.90
38568;DHT22;24338;48.280;10.970;2023-03-11T00:10:39;2.30;99.90
38568;DHT22;24338;48.280;10.970;2023-03-11T00:13:08;2.40;99.90
38568;DHT22;24338;48.280;10.970;2023-03-11T00:15:36;2.40;99.90
38568;DHT22;24338;48.280;10.970;2023-03-11T00:18:04;2.30;99.90
38568;DHT22;24338;48.280;10.970;2023-03-11T00:20:35;2.30;99.90
38568;DHT22;24338;48.280;10.970;2023-03-11T00:23:04;2.30;99.90
38568;DHT22;24338;48.280;10.970;2023-03-11T00:25:32;2.30;99.90
38568;DHT22;24338;48.280;10.970;2023-03-11T00:28:00;2.20;99.90
38568;DHT22;24338;48.280;10.970;2023-03-11T00:30:28;2.20;99.90
38568;DHT22;24338;48.280;10.970;2023-03-11T00:32:58;2.20;99.90
38568;DHT22;24338;48.280;10.970;2023-03-11T00:35:28;2.20;99.90
38568;DHT22;24338;48.280;10.970;2023-03-11T00:37:58;2.20;99.90
38568;DHT22;24338;48.280;10.970;2023-03-11T00:40:28;2.10;99.90
38568;DHT22;24338;48.280;10.970;2023-03-11T00:42:55;2.20;99.90
38568;DHT22;24338;48.280;10.970;2023-03-11T00:45:22;2.20;99.90
38568;DHT22;24338;48.280;10.970;2023-03-11T00:47:50;2.20;99.90
38568;DHT22;24338;48.280;10.970;2023-03-11T00:50:20;2.10;99.90
38568;DHT22;24338;48.280;10.970;2023-03-11T00:52:48;2.10;99.90
38568;DHT22;24338;48.280;10.970;2023-03-11T00:55:21;2.10;99.90
38568;DHT22;24338;48.280;10.970;2023-03-11T00:57:53;2.10;99.90
38568;DHT22;24338;48.280;10.970;2023-03-11T01:00:21;2.00;99.90
38568;DHT22;24338;48.280;10.970;2023-03-11T01:02:48;1.90;99.90
38568;DHT22;24338;48.280;10.970;2023-03-11T01:05:18;1.90;99.90
38568;DHT22;24338;48.280;10.970;2023-03-11T01:07:46;1.90;99.90
38568;DHT22;24338;48.280;10.970;2023-03-11T01:10:13;1.80;99.90
38568;DHT22;24338;48.280;10.970;2023-03-11T01:12:40;1.80;99.90
38568;DHT22;24338;48.280;10.970;2023-03-11T01:15:15;1.80;99.90
38568;DHT22;24338;48.280;10.970;2023-03-11T01:17:43;1.80;99.90
38568;DHT22;24338;48.280;10.970;2023-03-11T01:20:10;1.80;99.90
38568;DHT22;24338;48.280;10.970;2023-03-11T01:22:37;1.70;99.90
38568;DHT22;24338;48.280;10.970;2023-03-11T01:25:04;1.70;99.90
38568;DHT22;24338;48.280;10.970;2023-03-11T01:27:31;1.70;99.90
38568;DHT22;24338;48.280;10.970;2023-03-11T01:29:58;1.60;99.90
38568;DHT22;24338;48.280;10.970;2023-03-11T01:32:25;1.60;99.90
38568;DHT22;24338;48.280;10.970;2023-03-11T01:34:52;1.60;99.90
38568;DHT22;24338;48.280;10.970;2023-03-11T01:37:18;1.60;99.90
38568;DHT22;24338;48.280;10.970;2023-03-11T01:39:46;1.60;99.90
38568;DHT22;24338;48.280;10.970;2023-03-11T01:42:13;1.50;99.90
38568;DHT22;24338;48.280;10.970;2023-03-11T01:44:41;1.50;99.90
38568;DHT22;24338;48.280;10.970;2023-03-11T01:49:39;1.50;99.90
38568;DHT22;24338;48.280;10.970;2023-03-11T01:52:09;1.50;99.90
38568;DHT22;24338;48.280;10.970;2023-03-11T01:54:38;1.50;99.90
38568;DHT22;24338;48.280;10.970;2023-03-11T01:57:09;1.40;99.90
38568;DHT22;24338;48.280;10.970;2023-03-11T01:59:39;1.40;99.90
38568;DHT22;24338;48.280;10.970;2023-03-11T02:04:49;1.30;99.90
38568;DHT22;24338;48.280;10.970;2023-03-11T02:07:17;1.30;99.90
38568;DHT22;24338;48.280;10.970;2023-03-11T02:09:44;1.30;99.90
38568;DHT22;24338;48.280;10.970;2023-03-11T02:12:12;1.30;99.90
38568;DHT22;24338;48.280;10.970;2023-03-11T02:14:43;1.30;99.90
38568;DHT22;24338;48.280;10.970;2023-03-11T02:17:11;1.30;99.90
38568;DHT22;24338;48.280;10.970;2023-03-11T02:22:41;1.20;99.90
38568;DHT22;24338;48.280;10.970;2023-03-11T02:25:23;1.20;99.90
38568;DHT22;24338;48.280;10.970;2023-03-11T02:27:53;1.10;99.90
38568;DHT22;24338;48.280;10.970;2023-03-11T02:30:22;1.10;99.90
38568;DHT22;24338;48.280;10.970;2023-03-11T02:32:49;1.10;99.90
38568;DHT22;24338;48.280;10.970;2023-03-11T02:35:17;1.00;99.90
38568;DHT22;24338;48.280;10.970;2023-03-11T02:37:49;1.00;99.90
38568;DHT22;24338;48.280;10.970;2023-03-11T02:42:55;0.90;99.90
38568;DHT22;24338;48.280;10.970;2023-03-11T02:45:24;0.90;99.90
38568;DHT22;24338;48.280;10.970;2023-03-11T02:47:56;0.80;99.90
38568;DHT22;24338;48.280;10.970;2023-03-11T02:50:24;0.80;99.90
38568;DHT22;24338;48.280;10.970;2023-03-11T02:52:52;0.80;99.90
38568;DHT22;24338;48.280;10.970;2023-03-11T02:55:19;0.70;99.90
38568;DHT22;24338;48.280;10.970;2023-03-11T02:57:47;0.70;99.90
38568;DHT22;24338;48.280;10.970;2023-03-11T03:00:15;0.70;99.90
38568;DHT22;24338;48.280;10.970;2023-03-11T03:02:44;0.70;99.90
38568;DHT22;24338;48.280;10.970;2023-03-11T03:05:11;0.70;99.90
38568;DHT22;24338;48.280;10.970;2023-03-11T03:07:38;0.70;99.90
38568;DHT22;24338;48.280;10.970;2023-03-11T03:10:07;0.70;99.90
38568;DHT22;24338;48.280;10.970;2023-03-11T03:12:34;0.70;99.90
38568;DHT22;24338;48.280;10.970;2023-03-11T03:15:01;0.80;99.90
38568;DHT22;24338;48.280;10.970;2023-03-11T03:17:28;0.70;99.90
38568;DHT22;24338;48.280;10.970;2023-03-11T03:19:55;0.70;99.90
38568;DHT22;24338;48.280;10.970;2023-03-11T03:22:21;0.70;99.90
38568;DHT22;24338;48.280;10.970;2023-03-11T03:24:51;0.70;99.90
38568;DHT22;24338;48.280;10.970;2023-03-11T03:27:19;0.70;99.90
38568;DHT22;24338;48.280;10.970;2023-03-11T03:29:46;0.70;99.90
38568;DHT22;24338;48.280;10.970;2023-03-11T03:32:12;0.60;99.90
38568;DHT22;24338;48.280;10.970;2023-03-11T03:34:39;0.60;99.90
38568;DHT22;24338;48.280;10.970;2023-03-11T03:37:06;0.60;99.90
38568;DHT22;24338;48.280;10.970;2023-03-11T03:39:33;0.60;99.90
38568;DHT22;24338;48.280;10.970;2023-03-11T03:42:00;0.60;99.90
38568;DHT22;24338;48.280;10.970;2023-03-11T03:44:26;0.60;99.90
38568;DHT22;24338;48.280;10.970;2023-03-11T03:46:53;0.60;99.90
38568;DHT22;24338;48.280;10.970;2023-03-11T03:49:20;0.60;99.90
38568;DHT22;24338;48.280;10.970;2023-03-11T03:51:47;0.60;99.90
38568;DHT22;24338;48.280;10.970;2023-03-11T03:54:14;0.60;99.90
38568;DHT22;24338;48.280;10.970;2023-03-11T03:56:41;0.60;99.90
38568;DHT22;24338;48.280;10.970;2023-03-11T03:59:09;0.70;99.90
38568;DHT22;24338;48.280;10.970;2023-03-11T04:01:36;0.60;99.90
38568;DHT22;24338;48.280;10.970;2023-03-11T04:04:02;0.50;99.90
38568;DHT22;24338;48.280;10.970;2023-03-11T04:06:29;0.50;99.90
38568;DHT22;24338;48.280;10.970;2023-03-11T04:08:56;0.60;99.90
38568;DHT22;24338;48.280;10.970;2023-03-11T04:11:23;0.60;99.90
38568;DHT22;24338;48.280;10.970;2023-03-11T04:13:50;0.50;99.90
38568;DHT22;24338;48.280;10.970;2023-03-11T04:16:21;0.60;99.90
38568;DHT22;24338;48.280;10.970;2023-03-11T04:18:49;0.60;99.90
38568;DHT22;24338;48.280;10.970;2023-03-11T04:21:16;0.60;99.90
38568;DHT22;24338;48.280;10.970;2023-03-11T04:23:43;0.70;99.90
38568;DHT22;24338;48.280;10.970;2023-03-11T04:26:09;0.70;99.90
38568;DHT22;24338;48.280;10.970;2023-03-11T04:28:36;0.70;99.90
38568;DHT22;24338;48.280;10.970;2023-03-11T04:31:03;0.70;99.90
38568;DHT22;24338;48.280;10.970;2023-03-11T04:33:30;0.70;99.90
38568;DHT22;24338;48.280;10.970;2023-03-11T04:35:58;0.80;99.90
38568;DHT22;24338;48.280;10.970;2023-03-11T04:38:24;0.80;99.90
38568;DHT22;24338;48.280;10.970;2023-03-11T04:40:51;0.80;99.90
38568;DHT22;24338;48.280;10.970;2023-03-11T04:43:18;0.80;99.90
38568;DHT22;24338;48.280;10.970;2023-03-11T04:45:49;0.80;99.90
38568;DHT22;24338;48.280;10.970;2023-03-11T04:48:16;0.70;99.90
38568;DHT22;24338;48.280;10.970;2023-03-11T04:50:42;0.70;99.90
38568;DHT22;24338;48.280;10.970;2023-03-11T05:07:45;0.70;99.90
38568;DHT22;24338;48.280;10.970;2023-03-11T05:10:13;0.60;99.90
38568;DHT22;24338;48.280;10.970;2023-03-11T05:12:40;0.60;99.90
38568;DHT22;24338;48.280;10.970;2023-03-11T05:15:07;0.60;99.90
38568;DHT22;24338;48.280;10.970;2023-03-11T05:17:34;0.60;99.90
38568;DHT22;24338;48.280;10.970;2023-03-11T05:20:00;0.60;99.90
38568;DHT22;24338;48.280;10.970;2023-03-11T05:22:27;0.50;99.90
38568;DHT22;24338;48.280;10.970;2023-03-11T05:24:54;0.50;99.90
38568;DHT22;24338;48.280;10.970;2023-03-11T05:27:21;0.40;99.90
38568;DHT22;24338;48.280;10.970;2023-03-11T05:33:35;0.30;99.90
38568;DHT22;24338;48.280;10.970;2023-03-11T05:36:07;0.30;99.90
38568;DHT22;24338;48.280;10.970;2023-03-11T05:38:35;0.20;99.90
38568;DHT22;24338;48.280;10.970;2023-03-11T05:41:02;0.20;99.90
38568;DHT22;24338;48.280;10.970;2023-03-11T05:43:29;0.20;99.90
38568;DHT22;24338;48.280;10.970;2023-03-11T05:45:56;0.10;99.90
38568;DHT22;24338;48.280;10.970;2023-03-11T05:48:23;0.10;99.90
38568;DHT22;24338;48.280;10.970;2023-03-11T05:50:50;0.10;99.90
38568;DHT22;24338;48.280;10.970;2023-03-11T05:53:17;0.00;99.90
38568;DHT22;24338;48.280;10.970;2023-03-11T05:55:43;0.00;99.90
38568;DHT22;24338;48.280;10.970;2023-03-11T05:58:10;0.00;99.90
38568;DHT22;24338;48.280;10.970;2023-03-11T06:00:37;0.00;99.90
38568;DHT22;24338;48.280;10.970;2023-03-11T06:03:04;0.00;99.90
38568;DHT22;24338;48.280;10.970;2023-03-11T06:05:31;0.00;99.90
38568;DHT22;24338;48.280;10.970;2023-03-11T06:07:58;0.00;99.90
38568;DHT22;24338;48.280;10.970;2023-03-11T06:10:25;-0.10;99.90
38568;DHT22;24338;48.280;10.970;2023-03-11T06:12:51;0.00;99.90
38568;DHT22;24338;48.280;10.970;2023-03-11T06:15:18;-0.10;99.90
38568;DHT22;24338;48.280;10.970;2023-03-11T06:17:45;-0.10;99.90
38568;DHT22;24338;48.280;10.970;2023-03-11T06:20:12;-0.10;99.90
38568;DHT22;24338;48.280;10.970;2023-03-11T06:22:39;-0.10;99.90
38568;DHT22;24338;48.280;10.970;2023-03-11T06:25:06;-0.10;99.90
38568;DHT22;24338;48.280;10.970;2023-03-11T06:27:34;-0.10;99.90
38568;DHT22;24338;48.280;10.970;2023-03-11T06:30:01;-0.10;99.90
38568;DHT22;24338;48.280;10.970;2023-03-11T06:32:27;-0.10;99.90
38568;DHT22;24338;48.280;10.970;2023-03-11T06:34:56;-0.10;99.90
38568;DHT22;24338;48.280;10.970;2023-03-11T06:37:22;-0.10;99.90
38568;DHT22;24338;48.280;10.970;2023-03-11T06:39:51;-0.10;99.90
38568;DHT22;24338;48.280;10.970;2023-03-11T06:42:20;-0.20;99.90
38568;DHT22;24338;48.280;10.970;2023-03-11T06:44:49;-0.20;99.90
38568;DHT22;24338;48.280;10.970;2023-03-11T06:47:16;-0.20;99.90
38568;DHT22;24338;48.280;10.970;2023-03-11T06:49:43;-0.20;99.90
38568;DHT22;24338;48.280;10.970;2023-03-11T06:52:09;-0.20;99.90
38568;DHT22;24338;48.280;10.970;2023-03-11T06:54:36;-0.20;99.90
38568;DHT22;24338;48.280;10.970;2023-03-11T06:57:06;-0.20;99.90
38568;DHT22;24338;48.280;10.970;2023-03-11T06:59:33;-0.20;99.90
38568;DHT22;24338;48.280;10.970;2023-03-11T07:02:01;-0.10;99.90
38568;DHT22;24338;48.280;10.970;2023-03-11T07:04:30;-0.10;99.90
38568;DHT22;24338;48.280;10.970;2023-03-11T07:06:57;0.00;99.90
38568;DHT22;24338;48.280;10.970;2023-03-11T07:09:24;0.00;99.90
38568;DHT22;24338;48.280;10.970;2023-03-11T07:11:53;0.00;99.90
38568;DHT22;24338;48.280;10.970;2023-03-11T07:14:21;0.00;99.90
38568;DHT22;24338;48.280;10.970;2023-03-11T07:16:48;0.00;99.90
38568;DHT22;24338;48.280;10.970;2023-03-11T07:19:15;0.00;99.90
38568;DHT22;24338;48.280;10.970;2023-03-11T07:21:42;-0.10;99.90
38568;DHT22;24338;48.280;10.970;2023-03-11T07:24:11;0.00;99.90
38568;DHT22;24338;48.280;10.970;2023-03-11T07:26:39;0.00;99.90
38568;DHT22;24338;48.280;10.970;2023-03-11T07:29:09;0.00;99.90
38568;DHT22;24338;48.280;10.970;2023-03-11T07:31:36;0.00;99.90
38568;DHT22;24338;48.280;10.970;2023-03-11T07:34:05;0.10;99.90
38568;DHT22;24338;48.280;10.970;2023-03-11T07:36:39;0.10;99.90
38568;DHT22;24338;48.280;10.970;2023-03-11T07:39:13;0.10;99.90
38568;DHT22;24338;48.280;10.970;2023-03-11T07:41:40;0.20;99.90
38568;DHT22;24338;48.280;10.970;2023-03-11T07:44:11;0.20;99.90
38568;DHT22;24338;48.280;10.970;2023-03-11T07:46:38;0.20;99.90
38568;DHT22;24338;48.280;10.970;2023-03-11T07:49:05;0.30;99.90
38568;DHT22;24338;48.280;10.970;2023-03-11T07:51:33;0.40;99.90
38568;DHT22;24338;48.280;10.970;2023-03-11T07:54:02;0.40;99.90
38568;DHT22;24338;48.280;10.970;2023-03-11T07:56:32;0.50;99.90
38568;DHT22;24338;48.280;10.970;2023-03-11T07:59:00;0.60;99.90
38568;DHT22;24338;48.280;10.970;2023-03-11T08:01:28;0.70;99.90
38568;DHT22;24338;48.280;10.970;2023-03-11T08:04:09;0.80;99.90
38568;DHT22;24338;48.280;10.970;2023-03-11T08:06:41;1.00;99.90
38568;DHT22;24338;48.280;10.970;2023-03-11T08:09:08;1.10;99.90
38568;DHT22;24338;48.280;10.970;2023-03-11T08:11:35;1.20;99.90
38568;DHT22;24338;48.280;10.970;2023-03-11T08:14:03;1.30;99.90
38568;DHT22;24338;48.280;10.970;2023-03-11T08:16:30;1.30;99.90
38568;DHT22;24338;48.280;10.970;2023-03-11T08:18:57;1.20;99.90
38568;DHT22;24338;48.280;10.970;2023-03-11T08:21:26;1.20;99.90
38568;DHT22;24338;48.280;10.970;2023-03-11T08:23:56;1.30;99.90
38568;DHT22;24338;48.280;10.970;2023-03-11T08:26:24;1.30;99.90
38568;DHT22;24338;48.280;10.970;2023-03-11T08:28:54;1.30;99.90
38568;DHT22;24338;48.280;10.970;2023-03-11T08:31:26;1.30;99.90
38568;DHT22;24338;48.280;10.970;2023-03-11T08:33:57;1.30;99.90
38568;DHT22;24338;48.280;10.970;2023-03-11T08:36:29;1.30;99.90
38568;DHT22;24338;48.280;10.970;2023-03-11T08:38:57;1.30;99.90
38568;DHT22;24338;48.280;10.970;2023-03-11T08:41:30;1.40;99.90
38568;DHT22;24338;48.280;10.970;2023-03-11T08:43:57;1.40;99.90
38568;DHT22;24338;48.280;10.970;2023-03-11T08:46:25;1.40;99.90
38568;DHT22;24338;48.280;10.970;2023-03-11T08:48:53;1.40;99.90
38568;DHT22;24338;48.280;10.970;2023-03-11T08:51:20;1.40;99.90
38568;DHT22;24338;48.280;10.970;2023-03-11T08:53:47;1.30;99.90
38568;DHT22;24338;48.280;10.970;2023-03-11T08:56:14;1.40;99.90
38568;DHT22;24338;48.280;10.970;2023-03-11T08:58:41;1.40;99.90
38568;DHT22;24338;48.280;10.970;2023-03-11T09:01:09;1.50;99.90
38568;DHT22;24338;48.280;10.970;2023-03-11T09:03:36;1.60;99.90
38568;DHT22;24338;48.280;10.970;2023-03-11T09:06:05;1.60;99.90
38568;DHT22;24338;48.280;10.970;2023-03-11T09:08:33;1.60;99.90
38568;DHT22;24338;48.280;10.970;2023-03-11T09:11:00;1.70;99.90
38568;DHT22;24338;48.280;10.970;2023-03-11T09:13:27;1.70;99.90
38568;DHT22;24338;48.280;10.970;2023-03-11T09:15:54;1.90;99.90
38568;DHT22;24338;48.280;10.970;2023-03-11T09:18:21;1.80;99.90
38568;DHT22;24338;48.280;10.970;2023-03-11T09:20:48;1.80;99.90
38568;DHT22;24338;48.280;10.970;2023-03-11T09:23:16;1.80;99.90
38568;DHT22;24338;48.280;10.970;2023-03-11T09:25:43;1.70;99.90
38568;DHT22;24338;48.280;10.970;2023-03-11T09:28:10;1.70;99.90
38568;DHT22;24338;48.280;10.970;2023-03-11T09:30:37;1.80;99.90
38568;DHT22;24338;48.280;10.970;2023-03-11T09:33:04;2.00;99.90
38568;DHT22;24338;48.280;10.970;2023-03-11T09:35:31;2.00;99.90
38568;DHT22;24338;48.280;10.970;2023-03-11T09:37:57;1.90;99.90
38568;DHT22;24338;48.280;10.970;2023-03-11T09:40:27;1.90;99.90
38568;DHT22;24338;48.280;10.970;2023-03-11T09:45:30;2.10;99.90
38568;DHT22;24338;48.280;10.970;2023-03-11T09:51:08;2.60;99.90
38568;DHT22;24338;48.280;10.970;2023-03-11T09:53:42;2.70;99.90
38568;DHT22;24338;48.280;10.970;2023-03-11T09:56:15;2.60;99.80
38568;DHT22;24338;48.280;10.970;2023-03-11T09:58:46;2.60;99.50
38568;DHT22;24338;48.280;10.970;2023-03-11T10:01:28;2.80;99.90
38568;DHT22;24338;48.280;10.970;2023-03-11T10:06:46;3.60;99.90
38568;DHT22;24338;48.280;10.970;2023-03-11T10:09:32;4.00;97.50
38568;DHT22;24338;48.280;10.970;2023-03-11T10:20:47;4.50;94.00
38568;DHT22;24338;48.280;10.970;2023-03-11T10:23:48;4.10;90.00
38568;DHT22;24338;48.280;10.970;2023-03-11T10:26:27;3.70;92.30
38568;DHT22;24338;48.280;10.970;2023-03-11T10:29:06;3.70;92.70
38568;DHT22;24338;48.280;10.970;2023-03-11T10:31:42;3.80;92.30
38568;DHT22;24338;48.280;10.970;2023-03-11T10:34:19;3.90;93.00
38568;DHT22;24338;48.280;10.970;2023-03-11T10:37:11;3.80;93.30
38568;DHT22;24338;48.280;10.970;2023-03-11T10:39:39;3.70;93.40
38568;DHT22;24338;48.280;10.970;2023-03-11T10:42:17;3.50;93.70
38568;DHT22;24338;48.280;10.970;2023-03-11T10:44:45;3.30;92.10
38568;DHT22;24338;48.280;10.970;2023-03-11T10:47:17;3.50;92.00
38568;DHT22;24338;48.280;10.970;2023-03-11T10:49:44;3.80;91.60
38568;DHT22;24338;48.280;10.970;2023-03-11T10:52:12;4.20;92.20
38568;DHT22;24338;48.280;10.970;2023-03-11T10:54:45;4.30;92.30
38568;DHT22;24338;48.280;10.970;2023-03-11T10:57:25;4.40;91.80
38568;DHT22;24338;48.280;10.970;2023-03-11T10:59:57;4.50;90.90
38568;DHT22;24338;48.280;10.970;2023-03-11T11:02:52;4.60;91.30
38568;DHT22;24338;48.280;10.970;2023-03-11T11:07:47;4.60;91.50
38568;DHT22;24338;48.280;10.970;2023-03-11T11:13:00;4.40;89.00
38568;DHT22;24338;48.280;10.970;2023-03-11T11:15:36;3.90;89.90
38568;DHT22;24338;48.280;10.970;2023-03-11T11:18:17;4.00;91.40
38568;DHT22;24338;48.280;10.970;2023-03-11T11:21:07;4.00;90.90
38568;DHT22;24338;48.280;10.970;2023-03-11T11:23:47;4.10;91.70
38568;DHT22;24338;48.280;10.970;2023-03-11T11:26:23;4.20;91.10
38568;DHT22;24338;48.280;10.970;2023-03-11T11:31:38;4.60;88.00
38568;DHT22;24338;48.280;10.970;2023-03-11T11:36:53;4.80;89.60
38568;DHT22;24338;48.280;10.970;2023-03-11T11:39:25;5.10;85.20
38568;DHT22;24338;48.280;10.970;2023-03-11T11:41:54;5.30;87.10
38568;DHT22;24338;48.280;10.970;2023-03-11T11:44:33;5.60;85.80
38568;DHT22;24338;48.280;10.970;2023-03-11T11:47:12;5.50;85.40
38568;DHT22;24338;48.280;10.970;2023-03-11T11:49:51;5.20;84.80
38568;DHT22;24338;48.280;10.970;2023-03-11T11:52:24;4.90;87.30
38568;DHT22;24338;48.280;10.970;2023-03-11T11:55:04;4.90;87.50
38568;DHT22;24338;48.280;10.970;2023-03-11T11:57:32;5.10;85.90
38568;DHT22;24338;48.280;10.970;2023-03-11T12:00:17;5.40;87.50
38568;DHT22;24338;48.280;10.970;2023-03-11T12:03:01;5.70;86.60
38568;DHT22;24338;48.280;10.970;2023-03-11T12:05:36;5.80;86.60
38568;DHT22;24338;48.280;10.970;2023-03-11T12:08:23;5.40;84.90
38568;DHT22;24338;48.280;10.970;2023-03-11T12:24:48;5.50;87.30
38568;DHT22;24338;48.280;10.970;2023-03-11T12:27:43;5.80;84.90
38568;DHT22;24338;48.280;10.970;2023-03-11T12:30:29;5.40;85.10
38568;DHT22;24338;48.280;10.970;2023-03-11T12:33:03;5.30;85.30
38568;DHT22;24338;48.280;10.970;2023-03-11T12:35:32;5.40;84.70
38568;DHT22;24338;48.280;10.970;2023-03-11T12:38:04;5.50;85.90
38568;DHT22;24338;48.280;10.970;2023-03-11T12:46:06;5.70;81.90
38568;DHT22;24338;48.280;10.970;2023-03-11T13:06:03;6.10;80.40
38568;DHT22;24338;48.280;10.970;2023-03-11T13:08:44;6.50;80.80
38568;DHT22;24338;48.280;10.970;2023-03-11T13:14:20;6.70;76.60
38568;DHT22;24338;48.280;10.970;2023-03-11T13:16:48;6.90;79.80
38568;DHT22;24338;48.280;10.970;2023-03-11T13:21:54;6.50;76.80
38568;DHT22;24338;48.280;10.970;2023-03-11T13:41:14;6.80;76.60
38568;DHT22;24338;48.280;10.970;2023-03-11T13:43:46;6.90;77.80
38568;DHT22;24338;48.280;10.970;2023-03-11T13:46:27;7.00;77.20
38568;DHT22;24338;48.280;10.970;2023-03-11T13:49:03;7.10;79.10
38568;DHT22;24338;48.280;10.970;2023-03-11T13:51:41;7.20;76.20
38568;DHT22;24338;48.280;10.970;2023-03-11T13:56:54;6.90;75.70
38568;DHT22;24338;48.280;10.970;2023-03-11T13:59:26;6.90;75.10
38568;DHT22;24338;48.280;10.970;2023-03-11T14:02:10;6.90;74.60
38568;DHT22;24338;48.280;10.970;2023-03-11T14:04:46;6.80;75.90
38568;DHT22;24338;48.280;10.970;2023-03-11T14:07:26;6.90;77.90
38568;DHT22;24338;48.280;10.970;2023-03-11T14:12:39;6.70;76.50
38568;DHT22;24338;48.280;10.970;2023-03-11T14:15:08;7.10;79.00
38568;DHT22;24338;48.280;10.970;2023-03-11T14:17:38;6.80;75.40
38568;DHT22;24338;48.280;10.970;2023-03-11T14:20:17;6.50;76.50
38568;DHT22;24338;48.280;10.970;2023-03-11T14:22:46;6.40;76.70
38568;DHT22;24338;48.280;10.970;2023-03-11T14:25:21;6.30;76.80
38568;DHT22;24338;48.280;10.970;2023-03-11T14:28:17;6.40;79.30
38568;DHT22;24338;48.280;10.970;2023-03-11T14:30:55;6.70;79.30
38568;DHT22;24338;48.280;10.970;2023-03-11T14:33:23;6.70;77.00
38568;DHT22;24338;48.280;10.970;2023-03-11T14:35:56;6.70;77.00
38568;DHT22;24338;48.280;10.970;2023-03-11T14:38:25;6.60;75.20
38568;DHT22;24338;48.280;10.970;2023-03-11T14:40:56;6.70;77.70
38568;DHT22;24338;48.280;10.970;2023-03-11T14:43:24;6.80;77.80
38568;DHT22;24338;48.280;10.970;2023-03-11T14:45:53;6.70;75.80
38568;DHT22;24338;48.280;10.970;2023-03-11T14:48:30;6.50;74.90
38568;DHT22;24338;48.280;10.970;2023-03-11T14:51:01;6.30;76.80
38568;DHT22;24338;48.280;10.970;2023-03-11T14:53:44;6.20;75.50
38568;DHT22;24338;48.280;10.970;2023-03-11T14:56:22;6.10;76.20
38568;DHT22;24338;48.280;10.970;2023-03-11T14:59:18;6.20;75.70
38568;DHT22;24338;48.280;10.970;2023-03-11T15:01:49;6.10;76.70
38568;DHT22;24338;48.280;10.970;2023-03-11T15:04:31;6.10;74.90
38568;DHT22;24338;48.280;10.970;2023-03-11T15:06:59;6.10;74.40
38568;DHT22;24338;48.280;10.970;2023-03-11T15:09:28;6.00;75.10
38568;DHT22;24338;48.280;10.970;2023-03-11T15:11:57;6.00;76.70
38568;DHT22;24338;48.280;10.970;2023-03-11T15:16:54;5.90;75.50
38568;DHT22;24338;48.280;10.970;2023-03-11T15:22:37;5.70;76.40
38568;DHT22;24338;48.280;10.970;2023-03-11T15:25:15;5.60;77.70
38568;DHT22;24338;48.280;10.970;2023-03-11T15:27:42;5.60;77.70
38568;DHT22;24338;48.280;10.970;2023-03-11T15:30:30;5.50;78.50
38568;DHT22;24338;48.280;10.970;2023-03-11T15:32:57;5.60;78.50
38568;DHT22;24338;48.280;10.970;2023-03-11T15:35:29;5.60;78.30
38568;DHT22;24338;48.280;10.970;2023-03-11T15:38:16;5.60;77.60
38568;DHT22;24338;48.280;10.970;2023-03-11T15:41:04;5.60;77.30
38568;DHT22;24338;48.280;10.970;2023-03-11T15:43:44;5.60;78.20
38568;DHT22;24338;48.280;10.970;2023-03-11T15:46:11;5.50;80.40
38568;DHT22;24338;48.280;10.970;2023-03-11T15:48:38;5.50;78.80
38568;DHT22;24338;48.280;10.970;2023-03-11T15:51:05;5.50;81.20
38568;DHT22;24338;48.280;10.970;2023-03-11T15:53:32;5.50;79.60
38568;DHT22;24338;48.280;10.970;2023-03-11T15:56:09;5.40;77.90
38568;DHT22;24338;48.280;10.970;2023-03-11T15:58:37;5.30;78.80
38568;DHT22;24338;48.280;10.970;2023-03-11T16:01:04;5.30;79.50
38568;DHT22;24338;48.280;10.970;2023-03-11T16:03:31;5.20;78.70
38568;DHT22;24338;48.280;10.970;2023-03-11T16:05:58;5.20;80.60
38568;DHT22;24338;48.280;10.970;2023-03-11T16:08:25;5.10;81.70
38568;DHT22;24338;48.280;10.970;2023-03-11T16:10:51;5.10;80.40
38568;DHT22;24338;48.280;10.970;2023-03-11T16:13:18;5.00;82.10
38568;DHT22;24338;48.280;10.970;2023-03-11T16:15:45;4.80;83.10
38568;DHT22;24338;48.280;10.970;2023-03-11T16:18:12;4.70;84.80
38568;DHT22;24338;48.280;10.970;2023-03-11T16:20:48;4.60;82.30
38568;DHT22;24338;48.280;10.970;2023-03-11T16:23:26;4.50;83.00
38568;DHT22;24338;48.280;10.970;2023-03-11T16:25:59;4.40;83.20
38568;DHT22;24338;48.280;10.970;2023-03-11T16:28:27;4.40;83.20
38568;DHT22;24338;48.280;10.970;2023-03-11T16:30:54;4.20;86.80
38568;DHT22;24338;48.280;10.970;2023-03-11T16:33:21;4.10;88.00
38568;DHT22;24338;48.280;10.970;2023-03-11T16:35:48;4.00;89.40
38568;DHT22;24338;48.280;10.970;2023-03-11T16:38:15;3.80;90.30
38568;DHT22;24338;48.280;10.970;2023-03-11T16:40:43;3.80;90.70
38568;DHT22;24338;48.280;10.970;2023-03-11T16:43:11;3.70;90.60
38568;DHT22;24338;48.280;10.970;2023-03-11T16:45:40;3.70;91.00
38568;DHT22;24338;48.280;10.970;2023-03-11T16:48:07;3.60;90.80
38568;DHT22;24338;48.280;10.970;2023-03-11T16:50:34;3.60;91.40
38568;DHT22;24338;48.280;10.970;2023-03-11T16:53:03;3.60;91.40
38568;DHT22;24338;48.280;10.970;2023-03-11T16:55:30;3.50;91.50
38568;DHT22;24338;48.280;10.970;2023-03-11T16:57:57;3.50;91.80
38568;DHT22;24338;48.280;10.970;2023-03-11T17:00:24;3.50;91.90
38568;DHT22;24338;48.280;10.970;2023-03-11T17:02:51;3.40;91.90
38568;DHT22;24338;48.280;10.970;2023-03-11T17:05:18;3.40;92.30
38568;DHT22;24338;48.280;10.970;2023-03-11T17:07:46;3.30;91.90
38568;DHT22;24338;48.280;10.970;2023-03-11T17:10:13;3.30;92.10
38568;DHT22;24338;48.280;10.970;2023-03-11T17:12:40;3.20;92.40
38568;DHT22;24338;48.280;10.970;2023-03-11T17:15:07;3.20;92.60
38568;DHT22;24338;48.280;10.970;2023-03-11T17:17:34;3.10;93.00
38568;DHT22;24338;48.280;10.970;2023-03-11T17:20:01;3.10;93.40
38568;DHT22;24338;48.280;10.970;2023-03-11T17:22:28;3.00;93.60
38568;DHT22;24338;48.280;10.970;2023-03-11T17:24:54;3.00;93.60
38568;DHT22;24338;48.280;10.970;2023-03-11T17:27:21;2.90;93.80
38568;DHT22;24338;48.280;10.970;2023-03-11T17:29:48;2.90;94.50
38568;DHT22;24338;48.280;10.970;2023-03-11T17:32:15;2.80;94.80
38568;DHT22;24338;48.280;10.970;2023-03-11T17:34:43;2.80;95.60
38568;DHT22;24338;48.280;10.970;2023-03-11T17:37:10;2.80;95.00
38568;DHT22;24338;48.280;10.970;2023-03-11T17:39:36;2.80;95.50
38568;DHT22;24338;48.280;10.970;2023-03-11T17:42:04;2.70;95.50
38568;DHT22;24338;48.280;10.970;2023-03-11T17:44:30;2.80;95.60
38568;DHT22;24338;48.280;10.970;2023-03-11T17:47:16;2.70;96.10
38568;DHT22;24338;48.280;10.970;2023-03-11T17:49:46;2.80;96.30
38568;DHT22;24338;48.280;10.970;2023-03-11T17:52:13;2.70;96.70
38568;DHT22;24338;48.280;10.970;2023-03-11T17:54:40;2.70;98.30